To NAV CANADA Home Page Login to a new session Search on AWWS site Feedback and Comments Disclaimer Vers la page française équivalente Tips FAQ What's new on the site To the Forecasts and Observations / NOTAM section To "File a Flight Plan" website Publications and other links Update of the User's profile FIC Telephone Numbers My Weather Data Folder Route Weather Data Regional Weather Data Local Weather Data To the Forecasts and Observations / NOTAM section
Request Generated 08/22/2017 at 03:32:24 UTC . Weather information available at that time is displayed.

METAR/TAF

ISLAND LAKE/MB    

METAR CYIV 220300Z 27008KT 15SM BKN040 BKN200 15/11 A2980 RMK CU5CI1
WND ESTD SLP099 DENSITY ALT 1100FT=
METAR CYIV 220200Z 27008KT 15SM SCT040 BKN200 15/10 A2980 RMK CU4CI1
WND ESTD SLP096 DENSITY ALT 1100FT=
METAR CYIV 220100Z CCA 27005KT 12SM SCT040TCU BKN200 16/10 A2979 RMK
TCU4CI2 SH E WND ESTD SLP093 DENSITY ALT 1200FT=
METAR CYIV 220100Z 36005KT 12SM SCT040TCU BKN200 16/10 A2979 RMK
TCU4CI2 SH E WND ESTD SLP093 DENSITY ALT 1200FT=

TAF CYIV 220038Z 2201/2213 28010KT P6SM SCT040 BKN080 TEMPO 2201/2209
P6SM -SHRA BKN040
FM220900 35010KT P6SM OVC012 TEMPO 2209/2213 3SM -DZ BR OVC006
RMK NXT FCST BY 220700Z=
Your time UTC time
Weather data provided by Environment Canada and NAV CANADA